createdAt,value
2023-09-10T00:00:39.961Z,18.00
2023-09-10T00:03:27.418Z,17.99
2023-09-10T00:05:55.466Z,17.99
2023-09-10T00:08:22.915Z,17.97
2023-09-10T00:10:50.388Z,17.96
2023-09-10T00:13:18.172Z,17.95
2023-09-10T00:15:45.721Z,17.94
2023-09-10T00:18:14.837Z,17.93
2023-09-10T00:20:42.453Z,17.92
2023-09-10T00:23:10.368Z,17.91
2023-09-10T00:25:37.908Z,17.90
2023-09-10T00:28:05.500Z,17.88
2023-09-10T00:30:32.950Z,17.87
2023-09-10T00:33:00.529Z,17.85
2023-09-10T00:35:28.976Z,17.84
2023-09-10T00:37:57.804Z,17.82
2023-09-10T00:40:26.489Z,17.80
2023-09-10T00:42:54.326Z,17.79
2023-09-10T00:45:21.864Z,17.78
2023-09-10T00:47:49.473Z,17.76
2023-09-10T00:50:18.511Z,17.74
2023-09-10T00:52:50.437Z,17.72
2023-09-10T00:55:19.793Z,17.72
2023-09-10T00:57:47.359Z,17.70
2023-09-10T01:00:15.243Z,17.69
2023-09-10T01:02:45.787Z,17.68
2023-09-10T01:05:13.636Z,17.67
2023-09-10T01:07:41.249Z,17.65
2023-09-10T01:10:09.445Z,17.64
2023-09-10T01:12:50.767Z,17.63
2023-09-10T01:15:28.985Z,17.62
2023-09-10T01:18:19.267Z,17.61
2023-09-10T01:21:18.041Z,17.59
2023-09-10T01:23:53.914Z,17.57
2023-09-10T01:26:21.375Z,17.54
2023-09-10T01:28:48.990Z,17.52
2023-09-10T01:31:16.511Z,17.50
2023-09-10T01:33:53.345Z,17.48
2023-09-10T01:36:39.829Z,17.46
2023-09-10T01:39:31.029Z,17.43
2023-09-10T01:41:59.506Z,17.41
2023-09-10T01:44:29.414Z,17.39
2023-09-10T01:46:57.179Z,17.37
2023-09-10T01:49:26.375Z,17.36
2023-09-10T01:51:53.906Z,17.35
2023-09-10T01:54:21.394Z,17.34
2023-09-10T01:56:48.921Z,17.32
2023-09-10T01:59:16.398Z,17.31
2023-09-10T02:01:44.030Z,17.29
2023-09-10T02:04:11.627Z,17.26
2023-09-10T02:06:39.370Z,17.24
2023-09-10T02:09:06.912Z,17.22
2023-09-10T02:11:34.340Z,17.21
2023-09-10T02:14:01.850Z,17.18
2023-09-10T02:16:29.468Z,17.16
2023-09-10T02:18:56.962Z,17.13
2023-09-10T02:21:24.504Z,17.10
2023-09-10T02:23:52.155Z,17.07
2023-09-10T02:26:19.669Z,17.05
2023-09-10T02:28:47.239Z,17.03
2023-09-10T02:31:14.881Z,17.00
2023-09-10T02:33:42.333Z,16.98
2023-09-10T02:36:09.766Z,16.96
2023-09-10T02:38:37.843Z,16.94
2023-09-10T02:41:05.910Z,16.91
2023-09-10T02:43:33.374Z,16.89
2023-09-10T02:46:00.859Z,16.87
2023-09-10T02:48:28.351Z,16.85
2023-09-10T02:50:55.811Z,16.83
2023-09-10T02:53:23.323Z,16.82
2023-09-10T02:56:01.043Z,16.80
2023-09-10T02:58:28.904Z,16.77
2023-09-10T03:00:56.604Z,16.75
2023-09-10T03:03:24.220Z,16.72
2023-09-10T03:05:51.994Z,16.70
2023-09-10T03:08:19.462Z,16.68
2023-09-10T03:10:47.074Z,16.67
2023-09-10T03:13:14.650Z,16.65
2023-09-10T03:15:42.246Z,16.64
2023-09-10T03:18:09.846Z,16.62
2023-09-10T03:20:38.133Z,16.60
2023-09-10T03:23:08.098Z,16.59
2023-09-10T03:25:38.830Z,16.58
2023-09-10T03:28:07.570Z,16.58
2023-09-10T03:30:35.115Z,16.57
2023-09-10T03:33:03.383Z,16.56
2023-09-10T03:35:31.086Z,16.54
2023-09-10T03:37:58.602Z,16.53
2023-09-10T03:40:26.244Z,16.52
2023-09-10T03:42:53.744Z,16.51
2023-09-10T03:45:21.210Z,16.49
2023-09-10T03:47:48.714Z,16.48
2023-09-10T03:50:16.751Z,16.46
2023-09-10T03:52:44.276Z,16.45
2023-09-10T03:55:11.948Z,16.45
2023-09-10T03:57:39.512Z,16.44
2023-09-10T04:00:09.407Z,16.42
2023-09-10T04:02:36.996Z,16.41
2023-09-10T04:05:05.332Z,16.40
2023-09-10T04:07:33.208Z,16.38
2023-09-10T04:10:00.634Z,16.38
2023-09-10T04:12:28.090Z,16.36
2023-09-10T04:14:55.736Z,16.34
2023-09-10T04:17:23.368Z,16.34
2023-09-10T04:19:51.449Z,16.34
2023-09-10T04:22:18.974Z,16.33
2023-09-10T04:24:46.483Z,16.32
2023-09-10T04:27:13.940Z,16.31
2023-09-10T04:29:41.401Z,16.29
2023-09-10T04:32:09.125Z,16.28
2023-09-10T04:34:36.697Z,16.29
2023-09-10T04:37:05.577Z,16.30
2023-09-10T04:39:33.201Z,16.31
2023-09-10T04:42:00.746Z,16.32
2023-09-10T04:44:28.165Z,16.33
2023-09-10T04:46:56.314Z,16.35
2023-09-10T04:49:24.645Z,16.37
2023-09-10T04:51:52.128Z,16.40
2023-09-10T04:54:19.571Z,16.43
2023-09-10T04:56:48.561Z,16.46
2023-09-10T04:59:16.057Z,16.49
2023-09-10T05:01:43.931Z,16.52
2023-09-10T05:04:11.674Z,16.55
2023-09-10T05:06:39.282Z,16.58
2023-09-10T05:09:09.040Z,16.61
2023-09-10T05:11:36.462Z,16.64
2023-09-10T05:14:03.980Z,16.69
2023-09-10T05:16:31.545Z,16.73
2023-09-10T05:18:59.076Z,16.79
2023-09-10T05:21:26.603Z,16.83
2023-09-10T05:23:54.118Z,16.89
2023-09-10T05:26:23.194Z,16.94
2023-09-10T05:28:50.748Z,17.00
2023-09-10T05:31:18.388Z,17.06
2023-09-10T05:33:46.086Z,17.12
2023-09-10T05:36:13.508Z,17.18
2023-09-10T05:38:41.246Z,17.23
2023-09-10T05:41:09.569Z,17.28
2023-09-10T05:43:37.074Z,17.34
2023-09-10T05:46:07.301Z,17.39
2023-09-10T05:48:35.850Z,17.46
2023-09-10T05:51:03.681Z,17.51
2023-09-10T05:53:31.177Z,17.59
2023-09-10T05:55:58.700Z,17.67
2023-09-10T05:58:26.785Z,17.75
2023-09-10T06:00:54.271Z,17.81
2023-09-10T06:03:21.900Z,17.88
2023-09-10T06:05:50.000Z,17.94
2023-09-10T06:08:17.804Z,18.00
2023-09-10T06:10:45.359Z,18.06
2023-09-10T06:13:12.866Z,18.12
2023-09-10T06:15:40.608Z,18.18
2023-09-10T06:18:08.214Z,18.24
2023-09-10T06:20:35.744Z,18.30
2023-09-10T06:23:03.356Z,18.36
2023-09-10T06:25:30.830Z,18.42
2023-09-10T06:27:58.526Z,18.47
2023-09-10T06:30:26.191Z,18.53
2023-09-10T06:32:53.822Z,18.62
2023-09-10T06:35:21.763Z,18.69
2023-09-10T06:37:49.579Z,18.77
2023-09-10T06:40:17.390Z,18.85
2023-09-10T06:42:45.107Z,18.93
2023-09-10T06:45:13.220Z,19.00
2023-09-10T06:47:40.746Z,19.09
2023-09-10T06:50:08.695Z,19.19
2023-09-10T06:52:36.136Z,19.29
2023-09-10T06:55:04.505Z,19.38
2023-09-10T06:57:32.056Z,19.49
2023-09-10T06:59:59.722Z,19.59
2023-09-10T07:02:27.462Z,19.69
2023-09-10T07:04:55.112Z,19.79
2023-09-10T07:07:22.658Z,19.91
2023-09-10T07:09:50.190Z,20.01
2023-09-10T07:12:18.168Z,20.11
2023-09-10T07:14:45.790Z,20.21
2023-09-10T07:17:13.517Z,20.31
2023-09-10T07:19:41.889Z,20.41
2023-09-10T07:22:09.483Z,20.53
2023-09-10T07:24:37.013Z,20.64
2023-09-10T07:27:04.826Z,20.74
2023-09-10T07:29:32.564Z,20.85
2023-09-10T07:32:00.364Z,20.95
2023-09-10T07:34:28.050Z,21.06
2023-09-10T07:36:56.023Z,21.17
2023-09-10T07:39:23.614Z,21.29
2023-09-10T07:41:51.092Z,21.39
2023-09-10T07:44:19.169Z,21.51
2023-09-10T07:46:48.101Z,21.64
2023-09-10T07:49:15.606Z,21.76
2023-09-10T07:51:43.380Z,21.89
2023-09-10T07:54:10.927Z,22.02
2023-09-10T07:56:38.529Z,22.17
2023-09-10T07:59:06.107Z,22.31
2023-09-10T08:01:33.821Z,22.49
2023-09-10T08:04:01.449Z,22.66
2023-09-10T08:06:29.038Z,22.85
2023-09-10T08:08:56.653Z,23.02
2023-09-10T08:11:24.239Z,23.21
2023-09-10T08:13:52.453Z,23.44
2023-09-10T08:16:20.039Z,23.63
2023-09-10T08:18:47.627Z,23.81
2023-09-10T08:21:15.173Z,24.03
2023-09-10T08:23:43.936Z,24.25
2023-09-10T08:26:12.631Z,24.40
2023-09-10T08:28:40.924Z,24.52
2023-09-10T08:31:08.773Z,24.68
2023-09-10T08:33:36.517Z,24.83
2023-09-10T08:36:04.379Z,25.01
2023-09-10T08:38:33.233Z,25.17
2023-09-10T08:41:00.785Z,25.36
2023-09-10T08:43:47.603Z,25.54
2023-09-10T08:46:15.843Z,25.78
2023-09-10T08:48:43.874Z,25.92
2023-09-10T08:51:13.186Z,26.06
2023-09-10T08:53:41.360Z,26.21
2023-09-10T08:56:10.404Z,26.34
2023-09-10T08:58:39.894Z,26.44
2023-09-10T09:01:10.472Z,26.55
2023-09-10T09:03:38.769Z,26.67
2023-09-10T09:06:07.312Z,26.82
2023-09-10T09:08:38.232Z,26.95
2023-09-10T09:11:12.950Z,27.11
2023-09-10T09:13:48.187Z,27.28
2023-09-10T09:16:16.846Z,27.40
2023-09-10T09:18:46.325Z,27.53
2023-09-10T09:21:22.413Z,27.74
2023-09-10T09:24:00.236Z,27.86
2023-09-10T09:26:29.108Z,27.92
2023-09-10T09:28:57.550Z,28.10
2023-09-10T09:31:26.154Z,28.21
2023-09-10T09:33:54.290Z,28.34
2023-09-10T09:36:30.911Z,28.57
2023-09-10T09:38:58.308Z,28.78
2023-09-10T09:41:25.896Z,28.99
2023-09-10T09:43:57.549Z,29.15
2023-09-10T09:46:32.105Z,29.20
2023-09-10T09:48:59.655Z,29.28
2023-09-10T09:51:28.942Z,29.46
2023-09-10T09:53:57.107Z,29.63
2023-09-10T09:56:24.767Z,29.79
2023-09-10T09:58:57.887Z,30.02
2023-09-10T10:01:26.986Z,30.31
2023-09-10T10:03:54.993Z,30.47
2023-09-10T10:06:24.312Z,30.54
2023-09-10T10:08:52.777Z,30.67
2023-09-10T10:11:36.625Z,30.76
2023-09-10T10:14:05.794Z,30.72
2023-09-10T10:16:34.345Z,30.81
2023-09-10T10:19:03.752Z,30.99
2023-09-10T10:21:31.912Z,31.10
2023-09-10T10:24:00.839Z,31.12
2023-09-10T10:26:30.007Z,31.17
2023-09-10T10:28:59.208Z,31.24
2023-09-10T10:31:33.448Z,31.19
2023-09-10T10:34:10.587Z,31.23
2023-09-10T10:37:02.256Z,31.52
2023-09-10T10:39:50.577Z,31.97
2023-09-10T10:42:23.578Z,32.24
2023-09-10T10:44:53.142Z,32.36
2023-09-10T10:47:23.954Z,32.44
2023-09-10T10:49:57.592Z,32.36
2023-09-10T10:52:32.644Z,32.45
2023-09-10T10:55:00.249Z,32.62
2023-09-10T10:57:29.957Z,32.87
2023-09-10T10:59:58.352Z,33.15
2023-09-10T11:02:26.211Z,33.29
2023-09-10T11:04:59.309Z,33.28
2023-09-10T11:07:28.345Z,33.21
2023-09-10T11:10:32.168Z,33.22
2023-09-10T11:13:07.340Z,33.28
2023-09-10T11:15:35.749Z,33.41
2023-09-10T11:18:35.289Z,33.45
2023-09-10T11:21:09.801Z,33.12
2023-09-10T11:23:53.309Z,32.95
2023-09-10T11:26:23.717Z,33.18
2023-09-10T11:28:54.701Z,33.51
2023-09-10T11:31:40.686Z,33.82
2023-09-10T11:34:32.392Z,34.12
2023-09-10T11:37:03.530Z,34.38
2023-09-10T11:39:33.748Z,34.66
2023-09-10T11:42:04.263Z,34.78
2023-09-10T11:44:31.755Z,34.82
2023-09-10T11:46:59.398Z,34.96
2023-09-10T11:49:27.423Z,34.87
2023-09-10T11:51:57.470Z,34.61
2023-09-10T11:54:26.740Z,34.62
2023-09-10T11:56:57.160Z,34.88
2023-09-10T11:59:33.371Z,35.05
2023-09-10T12:02:01.386Z,35.10
2023-09-10T12:04:31.071Z,35.06
2023-09-10T12:06:59.638Z,34.99
2023-09-10T12:09:31.469Z,34.94
2023-09-10T12:12:04.222Z,35.03
2023-09-10T12:14:32.488Z,35.11
2023-09-10T12:17:00.443Z,35.21
2023-09-10T12:19:28.279Z,35.29
2023-09-10T12:21:56.464Z,35.37
2023-09-10T12:24:24.500Z,35.35
2023-09-10T12:26:52.134Z,35.35
2023-09-10T12:29:22.250Z,35.42
2023-09-10T12:31:54.348Z,35.61
2023-09-10T12:34:22.227Z,35.86
2023-09-10T12:36:53.391Z,36.07
2023-09-10T12:39:27.565Z,36.35
2023-09-10T12:41:57.364Z,36.85
2023-09-10T12:44:25.186Z,37.26
2023-09-10T12:46:53.382Z,37.30
2023-09-10T12:49:22.192Z,37.18
2023-09-10T12:51:49.760Z,37.07
2023-09-10T12:54:17.743Z,36.95
2023-09-10T12:56:49.576Z,36.87
2023-09-10T12:59:17.072Z,36.84
2023-09-10T13:01:44.552Z,36.77
2023-09-10T13:04:12.060Z,36.65
2023-09-10T13:06:39.571Z,36.55
2023-09-10T13:09:07.348Z,36.43
2023-09-10T13:11:35.112Z,36.28
2023-09-10T13:14:03.495Z,36.43
2023-09-10T13:16:31.079Z,36.67
2023-09-10T13:18:58.716Z,36.94
2023-09-10T13:21:26.322Z,36.94
2023-09-10T13:23:53.924Z,36.94
2023-09-10T13:26:22.747Z,37.17
2023-09-10T13:28:50.256Z,37.30
2023-09-10T13:31:17.740Z,37.40
2023-09-10T13:33:45.308Z,37.50
2023-09-10T13:36:12.740Z,37.61
2023-09-10T13:38:40.180Z,37.93
2023-09-10T13:41:07.766Z,38.11
2023-09-10T13:43:35.297Z,38.47
2023-09-10T13:46:02.822Z,38.75
2023-09-10T13:48:30.315Z,38.81
2023-09-10T13:50:58.492Z,38.94
2023-09-10T13:53:26.078Z,38.98
2023-09-10T13:55:53.788Z,38.93
2023-09-10T13:58:21.263Z,38.94
2023-09-10T14:00:48.711Z,39.00
2023-09-10T14:03:16.382Z,39.04
2023-09-10T14:05:44.107Z,39.07
2023-09-10T14:08:11.659Z,39.10
2023-09-10T14:10:39.126Z,39.24
2023-09-10T14:13:06.648Z,39.51
2023-09-10T14:15:34.155Z,39.71
2023-09-10T14:18:01.700Z,39.68
2023-09-10T14:20:29.239Z,39.83
2023-09-10T14:22:57.021Z,39.98
2023-09-10T14:25:24.565Z,40.07
2023-09-10T14:27:53.278Z,39.99
2023-09-10T14:30:20.893Z,39.77
2023-09-10T14:32:48.478Z,39.71
2023-09-10T14:35:16.186Z,39.88
2023-09-10T14:37:43.696Z,40.34
2023-09-10T14:40:11.827Z,40.54
2023-09-10T14:42:39.318Z,40.81
2023-09-10T14:45:07.539Z,41.04
2023-09-10T14:47:35.210Z,41.25
2023-09-10T14:50:03.607Z,41.40
2023-09-10T14:52:31.176Z,41.62
2023-09-10T14:55:01.333Z,41.71
2023-09-10T14:57:28.871Z,42.02
2023-09-10T14:59:57.300Z,42.36
2023-09-10T15:02:24.878Z,42.34
2023-09-10T15:04:52.617Z,42.13
2023-09-10T15:07:20.098Z,42.18
2023-09-10T15:09:48.977Z,41.99
2023-09-10T15:12:16.521Z,41.71
2023-09-10T15:14:43.985Z,41.50
2023-09-10T15:17:11.526Z,41.36
2023-09-10T15:19:39.082Z,41.32
2023-09-10T15:22:06.621Z,41.42
2023-09-10T15:24:34.306Z,41.41
2023-09-10T15:27:01.815Z,41.76
2023-09-10T15:29:30.051Z,42.14
2023-09-10T15:31:58.698Z,42.29
2023-09-10T15:34:26.205Z,42.27
2023-09-10T15:36:53.645Z,42.25
2023-09-10T15:39:21.238Z,42.43
2023-09-10T15:41:50.658Z,42.66
2023-09-10T15:44:18.321Z,42.66
2023-09-10T15:46:45.913Z,42.61
2023-09-10T15:49:13.385Z,42.62
2023-09-10T15:51:40.906Z,42.69
2023-09-10T15:54:08.394Z,42.41
2023-09-10T15:56:35.978Z,42.26
2023-09-10T15:59:04.390Z,42.28
2023-09-10T16:01:32.180Z,42.22
2023-09-10T16:03:59.876Z,42.20
2023-09-10T16:06:27.704Z,42.18
2023-09-10T16:08:55.917Z,42.22
2023-09-10T16:11:23.468Z,42.10
2023-09-10T16:13:50.956Z,42.02
2023-09-10T16:16:18.506Z,42.07
2023-09-10T16:18:45.982Z,42.08
2023-09-10T16:21:13.532Z,42.09
2023-09-10T16:23:41.777Z,42.01
2023-09-10T16:26:11.028Z,41.78
2023-09-10T16:28:38.505Z,41.53
2023-09-10T16:31:10.900Z,41.33
2023-09-10T16:33:38.657Z,40.98
2023-09-10T16:36:06.637Z,40.22
2023-09-10T16:38:34.134Z,39.21
2023-09-10T16:41:01.749Z,38.30
2023-09-10T16:43:29.295Z,37.65
2023-09-10T16:45:56.742Z,36.96
2023-09-10T16:48:24.240Z,36.04
2023-09-10T16:50:51.859Z,35.12
2023-09-10T16:53:19.516Z,34.27
2023-09-10T16:55:54.278Z,33.49
2023-09-10T16:58:23.462Z,32.78
2023-09-10T17:00:51.120Z,32.13
2023-09-10T17:03:18.727Z,31.58
2023-09-10T17:05:46.326Z,31.06
2023-09-10T17:08:13.873Z,30.57
2023-09-10T17:10:41.375Z,30.12
2023-09-10T17:13:09.010Z,29.66
2023-09-10T17:15:36.530Z,29.27
2023-09-10T17:18:04.729Z,28.85
2023-09-10T17:20:34.789Z,28.46
2023-09-10T17:23:02.242Z,28.11
2023-09-10T17:25:29.767Z,27.78
2023-09-10T17:27:58.272Z,27.47
2023-09-10T17:30:25.806Z,27.18
2023-09-10T17:32:58.342Z,26.89
2023-09-10T17:35:28.046Z,26.62
2023-09-10T17:37:55.586Z,26.36
2023-09-10T17:40:23.202Z,26.09
2023-09-10T17:42:50.702Z,25.85
2023-09-10T17:45:18.193Z,25.61
2023-09-10T17:47:45.733Z,25.38
2023-09-10T17:50:13.975Z,25.17
2023-09-10T17:52:41.891Z,24.95
2023-09-10T17:55:09.442Z,24.75
2023-09-10T17:57:37.132Z,24.55
2023-09-10T18:00:07.151Z,24.38
2023-09-10T18:02:34.842Z,24.20
2023-09-10T18:05:04.294Z,24.04
2023-09-10T18:07:33.605Z,23.86
2023-09-10T18:10:01.396Z,23.70
2023-09-10T18:12:34.225Z,23.55
2023-09-10T18:15:01.841Z,23.41
2023-09-10T18:17:33.814Z,23.25
2023-09-10T18:20:04.569Z,23.11
2023-09-10T18:22:32.188Z,22.98
2023-09-10T18:25:00.867Z,22.84
2023-09-10T18:27:28.684Z,22.73
2023-09-10T18:29:56.615Z,22.63
2023-09-10T18:32:25.282Z,22.53
2023-09-10T18:35:07.706Z,22.42
2023-09-10T18:37:35.283Z,22.33
2023-09-10T18:40:04.743Z,22.24
2023-09-10T18:42:32.217Z,22.14
2023-09-10T18:44:59.702Z,22.05
2023-09-10T18:47:35.336Z,21.95
2023-09-10T18:50:03.239Z,21.87
2023-09-10T18:52:33.488Z,21.78
2023-09-10T18:55:01.073Z,21.70
2023-09-10T18:57:28.555Z,21.61
2023-09-10T18:59:56.239Z,21.54
2023-09-10T19:02:30.031Z,21.45
2023-09-10T19:05:01.103Z,21.38
2023-09-10T19:07:28.588Z,21.32
2023-09-10T19:09:56.334Z,21.23
2023-09-10T19:12:24.933Z,21.14
2023-09-10T19:15:02.224Z,21.04
2023-09-10T19:17:29.776Z,20.96
2023-09-10T19:20:15.247Z,20.87
2023-09-10T19:22:44.474Z,20.80
2023-09-10T19:25:14.078Z,20.74
2023-09-10T19:27:41.550Z,20.68
2023-09-10T19:30:09.302Z,20.63
2023-09-10T19:32:40.248Z,20.57
2023-09-10T19:35:08.364Z,20.50
2023-09-10T19:37:35.890Z,20.44
2023-09-10T19:40:07.601Z,20.39
2023-09-10T19:42:42.969Z,20.33
2023-09-10T19:45:14.295Z,20.28
2023-09-10T19:47:46.768Z,20.22
2023-09-10T19:50:15.263Z,20.16
2023-09-10T19:52:44.251Z,20.12
2023-09-10T19:55:16.763Z,20.08
2023-09-10T19:57:44.225Z,20.04
2023-09-10T20:00:16.466Z,19.99
2023-09-10T20:02:47.775Z,19.94
2023-09-10T20:05:17.273Z,19.89
2023-09-10T20:07:44.915Z,19.84
2023-09-10T20:10:13.347Z,19.79
2023-09-10T20:12:41.196Z,19.75
2023-09-10T20:15:08.955Z,19.72
2023-09-10T20:17:37.208Z,19.69
2023-09-10T20:20:15.641Z,19.67
2023-09-10T20:22:57.890Z,19.62
2023-09-10T20:25:28.961Z,19.59
2023-09-10T20:27:56.501Z,19.55
2023-09-10T20:30:31.449Z,19.52
2023-09-10T20:33:00.083Z,19.49
2023-09-10T20:35:27.836Z,19.46
2023-09-10T20:37:55.484Z,19.42
2023-09-10T20:40:24.950Z,19.38
2023-09-10T20:42:56.624Z,19.33
2023-09-10T20:45:24.114Z,19.28
2023-09-10T20:47:51.726Z,19.24
2023-09-10T20:50:21.666Z,19.20
2023-09-10T20:52:50.898Z,19.18
2023-09-10T20:55:19.536Z,19.17
2023-09-10T20:57:48.877Z,19.16
2023-09-10T21:00:17.003Z,19.14
2023-09-10T21:02:47.163Z,19.14
2023-09-10T21:05:19.907Z,19.13
2023-09-10T21:07:48.659Z,19.12
2023-09-10T21:10:19.358Z,19.10
2023-09-10T21:12:55.026Z,19.09
2023-09-10T21:15:26.604Z,19.06
2023-09-10T21:17:55.444Z,19.04
2023-09-10T21:20:24.187Z,19.01
2023-09-10T21:22:51.690Z,18.96
2023-09-10T21:25:20.704Z,18.91
2023-09-10T21:27:48.159Z,18.85
2023-09-10T21:30:16.746Z,18.81
2023-09-10T21:32:47.218Z,18.76
2023-09-10T21:35:16.776Z,18.72
2023-09-10T21:37:44.257Z,18.67
2023-09-10T21:40:16.081Z,18.64
2023-09-10T21:42:43.551Z,18.59
2023-09-10T21:45:24.989Z,18.55
2023-09-10T21:47:54.520Z,18.51
2023-09-10T21:50:36.592Z,18.47
2023-09-10T21:53:05.039Z,18.43
2023-09-10T21:55:32.618Z,18.40
2023-09-10T21:58:00.237Z,18.37
2023-09-10T22:00:29.748Z,18.35
2023-09-10T22:02:57.382Z,18.32
2023-09-10T22:05:26.787Z,18.30
2023-09-10T22:07:54.286Z,18.29
2023-09-10T22:10:26.231Z,18.27
2023-09-10T22:12:53.786Z,18.25
2023-09-10T22:15:21.297Z,18.23
2023-09-10T22:17:50.948Z,18.20
2023-09-10T22:20:18.864Z,18.16
2023-09-10T22:22:47.398Z,18.13
2023-09-10T22:25:17.543Z,18.09
2023-09-10T22:27:45.751Z,18.06
2023-09-10T22:30:14.507Z,18.03
2023-09-10T22:32:42.091Z,18.00
2023-09-10T22:35:17.705Z,17.94
2023-09-10T22:37:45.234Z,17.91
2023-09-10T22:40:13.709Z,17.88
2023-09-10T22:42:41.890Z,17.86
2023-09-10T22:45:10.978Z,17.84
2023-09-10T22:47:53.323Z,17.81
2023-09-10T22:50:22.147Z,17.80
2023-09-10T22:52:49.908Z,17.78
2023-09-10T22:55:19.802Z,17.77
2023-09-10T22:57:49.920Z,17.75
2023-09-10T23:00:18.814Z,17.73
2023-09-10T23:03:00.275Z,17.70
2023-09-10T23:05:30.827Z,17.68
2023-09-10T23:07:59.264Z,17.68
2023-09-10T23:10:27.018Z,17.67
2023-09-10T23:12:56.260Z,17.67
2023-09-10T23:15:23.737Z,17.67
2023-09-10T23:18:05.481Z,17.67
2023-09-10T23:20:33.187Z,17.67
2023-09-10T23:23:05.082Z,17.67
2023-09-10T23:25:32.754Z,17.67
2023-09-10T23:28:00.281Z,17.68
2023-09-10T23:30:28.299Z,17.69
2023-09-10T23:32:57.961Z,17.71
2023-09-10T23:35:26.121Z,17.72
2023-09-10T23:38:02.628Z,17.73
2023-09-10T23:40:31.228Z,17.73
2023-09-10T23:42:58.813Z,17.73
2023-09-10T23:45:26.344Z,17.74
2023-09-10T23:47:54.067Z,17.74
2023-09-10T23:50:23.882Z,17.74
2023-09-10T23:52:53.215Z,17.74
2023-09-10T23:55:24.832Z,17.74
2023-09-10T23:57:52.290Z,17.74
